createdAt,value
2015-03-21T13:13:34.486Z,44
2015-03-21T15:45:51.354Z,44
2015-03-21T15:46:09.807Z,48
2015-03-21T15:46:28.213Z,48
2015-03-21T15:46:46.885Z,49
2015-03-21T15:47:05.294Z,49
2015-03-21T15:47:23.701Z,49
2015-03-21T15:47:42.138Z,49
2015-03-21T15:48:00.593Z,49
2015-03-21T15:48:19.093Z,49
2015-03-21T15:48:37.578Z,49
2015-03-21T15:48:56.296Z,49
2015-03-21T15:49:14.737Z,48
2015-03-21T15:49:33.471Z,49
2015-03-21T15:49:51.877Z,49
2015-03-21T15:50:10.365Z,49
2015-03-21T15:50:28.943Z,49
2015-03-21T15:50:47.349Z,49
2015-03-21T15:51:05.724Z,49
2015-03-21T15:51:24.225Z,49
2015-03-21T15:51:42.819Z,49
2015-03-21T15:52:01.319Z,49
2015-03-21T15:52:20.103Z,49
2015-03-21T15:52:38.588Z,49
2015-03-21T15:52:57.009Z,49
2015-03-21T15:53:15.384Z,49
2015-03-21T15:53:33.762Z,49
2015-03-21T15:53:52.169Z,49
2015-03-21T15:54:10.544Z,49
2015-03-21T15:54:29.030Z,49
2015-03-21T15:54:47.436Z,49
2015-03-21T15:55:05.843Z,49
2015-03-21T15:55:24.343Z,49
2015-03-21T15:55:42.767Z,49
2015-03-21T15:56:01.439Z,49
2015-03-21T15:56:19.892Z,49
2015-03-21T15:56:38.302Z,49
2015-03-21T15:56:56.677Z,49
2015-03-21T15:57:15.145Z,49
2015-03-21T15:57:33.661Z,49
2015-03-21T15:57:52.038Z,49
2015-03-21T15:58:10.507Z,49
2015-03-21T15:58:29.304Z,49
2015-03-21T15:58:47.806Z,49
2015-03-21T15:59:06.212Z,49
2015-03-21T15:59:24.603Z,49
2015-03-21T15:59:43.228Z,49
2015-03-21T16:00:01.715Z,49
2015-03-21T16:00:20.168Z,49
2015-03-21T16:00:38.543Z,49
2015-03-21T16:00:56.951Z,49
2015-03-21T16:01:15.514Z,49
2015-03-21T16:01:33.889Z,49
2015-03-21T16:01:52.279Z,49
2015-03-21T16:02:10.688Z,49
2015-03-21T16:02:29.235Z,49
2015-03-21T16:02:47.766Z,49
2015-03-21T16:03:06.316Z,49
2015-03-21T16:03:24.816Z,49
2015-03-21T16:03:43.441Z,49
2015-03-21T16:04:02.019Z,49
2015-03-21T16:04:20.427Z,49
2015-03-21T16:04:38.833Z,49
2015-03-21T16:04:57.208Z,49
2015-03-21T16:05:15.586Z,49
2015-03-21T16:05:34.008Z,49
2015-03-21T16:05:52.383Z,49
2015-03-21T16:06:10.899Z,49
2015-03-21T16:06:29.385Z,49
2015-03-21T16:06:47.776Z,49
2015-03-21T16:07:06.166Z,49
2015-03-21T16:07:24.544Z,49
2015-03-21T16:07:42.919Z,49
2015-03-21T16:08:01.357Z,49
2015-03-21T16:08:19.794Z,49
2015-03-21T16:08:38.156Z,49
2015-03-21T16:08:56.625Z,49
2015-03-21T16:09:15.078Z,49
2015-03-21T16:09:33.503Z,49
2015-03-21T16:09:51.940Z,49
2015-03-21T16:10:10.424Z,49
2015-03-21T16:10:28.878Z,49
2015-03-21T16:10:47.255Z,49
2015-03-21T16:11:05.614Z,50
2015-03-21T16:11:23.989Z,50
2015-03-21T16:11:42.398Z,50
2015-03-21T16:12:00.820Z,50
2015-03-21T16:12:19.304Z,50
2015-03-21T16:12:37.695Z,50
2015-03-21T16:12:56.198Z,50
2015-03-21T16:13:14.761Z,50
2015-03-21T16:13:33.573Z,50
2015-03-21T16:13:52.076Z,50
2015-03-21T16:14:10.607Z,50
2015-03-21T16:14:29.014Z,50
2015-03-21T16:14:47.389Z,50
2015-03-21T16:15:05.765Z,50
2015-03-21T16:15:24.155Z,50
2015-03-21T16:15:42.608Z,50
2015-03-21T16:16:00.986Z,50
2015-03-21T16:16:19.455Z,50
2015-03-21T16:16:37.861Z,50
2015-03-21T16:16:56.252Z,50
2015-03-21T16:17:15.036Z,50
2015-03-21T16:17:33.411Z,50
2015-03-21T16:17:52.005Z,50
2015-03-21T16:18:10.413Z,50
2015-03-21T16:18:28.976Z,50
2015-03-21T16:18:47.460Z,50
2015-03-21T16:19:05.851Z,50
2015-03-21T16:19:24.479Z,50
2015-03-21T16:19:43.104Z,51
2015-03-21T16:20:01.604Z,51
2015-03-21T16:20:19.981Z,51
2015-03-21T16:20:38.371Z,51
2015-03-21T16:20:56.778Z,51
2015-03-21T16:21:15.168Z,51
2015-03-21T16:21:33.545Z,51
2015-03-21T16:21:52.451Z,51
2015-03-21T16:22:10.842Z,51
2015-03-21T16:22:29.251Z,51
2015-03-21T16:22:47.704Z,51
2015-03-21T16:23:06.298Z,51
2015-03-21T16:23:24.689Z,51
2015-03-21T16:23:43.332Z,51
2015-03-21T16:24:01.879Z,51
2015-03-21T16:24:20.317Z,51
2015-03-21T16:24:38.772Z,51
2015-03-21T16:24:57.163Z,51
2015-03-21T16:25:15.663Z,51
2015-03-21T16:25:34.475Z,51
2015-03-21T16:25:53.165Z,51
2015-03-21T16:26:11.602Z,52
2015-03-21T16:26:30.149Z,52
2015-03-21T16:26:48.543Z,52
2015-03-21T16:27:07.121Z,52
2015-03-21T16:27:25.652Z,52
2015-03-21T16:27:44.011Z,52
2015-03-21T16:28:02.389Z,52
2015-03-21T16:28:21.061Z,52
2015-03-21T16:28:39.499Z,52
2015-03-21T16:28:57.923Z,52
2015-03-21T16:29:16.313Z,52
2015-03-21T16:29:34.719Z,52
2015-03-21T16:29:53.188Z,52
2015-03-21T16:30:11.628Z,52
2015-03-21T16:30:30.003Z,52
2015-03-21T16:30:48.565Z,53
2015-03-21T16:31:07.021Z,53
2015-03-21T16:31:25.412Z,53
2015-03-21T16:31:43.803Z,53
2015-03-21T16:32:02.318Z,53
2015-03-21T16:32:20.773Z,53
2015-03-21T16:32:39.336Z,53
2015-03-21T16:32:57.742Z,53
2015-03-21T16:33:16.120Z,53
2015-03-21T16:33:34.933Z,53
2015-03-21T16:33:53.323Z,53
2015-03-21T16:34:11.745Z,53
2015-03-21T16:34:30.139Z,54
2015-03-21T16:34:48.576Z,54
2015-03-21T16:35:07.217Z,54
2015-03-21T16:35:25.671Z,54
2015-03-21T16:35:44.358Z,54
2015-03-21T16:36:02.733Z,54
2015-03-21T16:36:21.108Z,54
2015-03-21T16:36:39.503Z,55
2015-03-21T16:36:57.972Z,55
2015-03-21T16:37:16.800Z,55
2015-03-21T16:37:35.166Z,55
2015-03-21T16:37:53.932Z,56
2015-03-21T16:38:12.432Z,56
2015-03-21T16:38:31.088Z,56
2015-03-21T16:38:49.478Z,56
2015-03-21T16:39:07.916Z,56
2015-03-21T16:39:26.275Z,57
2015-03-21T16:39:44.727Z,57
2015-03-21T16:40:03.289Z,58
2015-03-21T16:40:21.695Z,58
2015-03-21T16:40:40.102Z,59
2015-03-21T16:40:58.743Z,59
2015-03-21T16:41:17.118Z,60
2015-03-21T16:41:35.493Z,60
2015-03-21T16:41:53.914Z,60
2015-03-21T16:42:12.320Z,60
2015-03-21T16:42:30.758Z,61
2015-03-21T16:42:49.206Z,61
2015-03-21T16:43:07.706Z,61
2015-03-21T16:43:26.331Z,61
2015-03-21T16:43:44.697Z,61
2015-03-21T16:44:03.088Z,62
2015-03-21T16:44:21.494Z,62
2015-03-21T16:44:39.916Z,62
2015-03-21T16:44:58.392Z,62
2015-03-21T16:45:16.876Z,62
2015-03-21T16:45:35.267Z,62
2015-03-21T16:45:53.868Z,62
2015-03-21T16:46:12.493Z,62
2015-03-21T16:46:30.930Z,62
2015-03-21T16:46:49.368Z,62
2015-03-21T16:47:07.891Z,62
2015-03-21T16:47:26.344Z,62
2015-03-21T16:47:44.751Z,63
2015-03-21T16:48:03.334Z,63
2015-03-21T16:48:21.724Z,63
2015-03-21T16:48:40.287Z,63
2015-03-21T16:48:58.896Z,63
2015-03-21T16:49:17.290Z,63
2015-03-21T16:49:35.774Z,63
2015-03-21T16:49:54.227Z,63
2015-03-21T16:50:12.670Z,63
2015-03-21T16:50:31.186Z,63
2015-03-21T16:50:49.576Z,63
2015-03-21T16:51:08.357Z,63
2015-03-21T16:51:26.955Z,64
2015-03-21T16:51:45.424Z,64
2015-03-21T16:52:03.877Z,64
2015-03-21T16:52:22.459Z,64
2015-03-21T16:52:40.912Z,64
2015-03-21T16:52:59.272Z,64
2015-03-21T16:53:17.990Z,64
2015-03-21T16:53:36.509Z,64
2015-03-21T16:53:55.384Z,64
2015-03-21T16:54:14.056Z,64
2015-03-21T16:54:32.543Z,64
2015-03-21T16:54:51.121Z,63
2015-03-21T16:55:09.653Z,63
2015-03-21T16:55:28.028Z,63
2015-03-21T16:55:46.656Z,63
2015-03-21T16:56:04.499Z,63
2015-03-21T16:56:23.062Z,63
2015-03-21T16:56:41.706Z,63
2015-03-21T16:57:00.299Z,63
2015-03-21T16:57:18.893Z,63
2015-03-21T16:57:37.268Z,63
2015-03-21T16:57:55.989Z,63
2015-03-21T16:58:14.958Z,63
2015-03-21T16:58:33.567Z,63
2015-03-21T16:58:51.961Z,63
2015-03-21T16:59:10.367Z,63
2015-03-21T16:59:28.851Z,63
2015-03-21T16:59:47.260Z,63
2015-03-21T17:00:05.635Z,63
2015-03-21T17:00:24.010Z,63
2015-03-21T17:00:42.510Z,63
2015-03-21T17:01:00.998Z,63
2015-03-21T17:01:19.654Z,63
2015-03-21T17:01:38.154Z,63
2015-03-21T17:01:56.579Z,63
2015-03-21T17:02:15.032Z,63
2015-03-21T17:02:33.516Z,63
2015-03-21T17:02:52.251Z,63
2015-03-21T17:03:10.722Z,63
2015-03-21T17:03:29.315Z,63
2015-03-21T17:03:47.972Z,63
2015-03-21T17:04:06.803Z,63
2015-03-21T17:04:25.568Z,63
2015-03-21T17:04:43.990Z,64
2015-03-21T17:05:02.396Z,64
2015-03-21T17:05:20.930Z,64
2015-03-21T17:05:39.352Z,64
2015-03-21T17:05:57.852Z,64
2015-03-21T17:06:16.511Z,64
2015-03-21T17:06:35.089Z,64
2015-03-21T17:06:53.917Z,64
2015-03-21T17:07:12.841Z,64
2015-03-21T17:07:31.232Z,64
2015-03-21T17:07:49.778Z,64
2015-03-21T17:08:08.325Z,64
2015-03-21T17:08:26.921Z,63
2015-03-21T17:08:45.530Z,63
2015-03-21T17:09:04.109Z,63
2015-03-21T17:09:22.612Z,63
2015-03-21T17:09:41.033Z,63
2015-03-21T17:09:59.705Z,63
2015-03-21T17:10:18.129Z,63
2015-03-21T17:10:36.692Z,63
2015-03-21T17:10:55.254Z,63
2015-03-21T17:11:13.848Z,63
2015-03-21T17:11:32.428Z,63
2015-03-21T17:11:50.850Z,63
2015-03-21T17:12:09.241Z,63
2015-03-21T17:12:27.837Z,63
2015-03-21T17:12:46.212Z,63
2015-03-21T17:13:04.806Z,63
2015-03-21T17:13:23.306Z,63
2015-03-21T17:13:41.777Z,63
2015-03-21T17:14:00.214Z,63
2015-03-21T17:14:18.667Z,63
2015-03-21T17:14:37.233Z,63
2015-03-21T17:14:55.780Z,64
2015-03-21T17:15:14.499Z,64
2015-03-21T17:15:33.251Z,64
2015-03-21T17:15:51.657Z,64
2015-03-21T17:16:10.329Z,64
2015-03-21T17:16:29.157Z,64
2015-03-21T17:16:48.035Z,64
2015-03-21T17:17:06.519Z,64
2015-03-21T17:17:24.285Z,64
2015-03-21T17:17:42.865Z,64
2015-03-21T17:18:01.256Z,64
2015-03-21T17:18:20.037Z,64
2015-03-21T17:18:38.834Z,64
2015-03-21T17:18:57.679Z,64
2015-03-21T17:19:16.164Z,64
2015-03-21T17:19:35.148Z,64
2015-03-21T17:19:54.057Z,64
2015-03-21T17:20:12.729Z,64
2015-03-21T17:20:31.104Z,64
2015-03-21T17:20:49.747Z,64
2015-03-21T17:21:08.372Z,65
2015-03-21T17:21:26.778Z,65
2015-03-21T17:21:45.294Z,65
2015-03-21T17:22:03.969Z,65
2015-03-21T17:22:22.391Z,65
2015-03-21T17:22:40.891Z,65
2015-03-21T17:22:59.909Z,65
2015-03-21T17:23:18.487Z,65
2015-03-21T17:23:36.956Z,65
2015-03-21T17:23:55.896Z,65
2015-03-21T17:24:14.583Z,65
2015-03-21T17:24:33.021Z,65
2015-03-21T17:24:51.786Z,65
2015-03-21T17:25:10.272Z,65
2015-03-21T17:25:28.662Z,65
2015-03-21T17:25:47.256Z,65
2015-03-21T17:26:06.212Z,65
2015-03-21T17:26:24.775Z,65
2015-03-21T17:26:43.165Z,65
2015-03-21T17:27:01.762Z,65
2015-03-21T17:27:20.324Z,65
2015-03-21T17:27:38.778Z,65
2015-03-21T17:27:57.528Z,65
2015-03-21T17:28:16.467Z,65
2015-03-21T17:28:34.889Z,65
2015-03-21T17:28:53.592Z,65
2015-03-21T17:29:12.328Z,65
2015-03-21T17:29:30.735Z,65
2015-03-21T17:29:49.453Z,65
2015-03-21T17:30:08.456Z,65
2015-03-21T17:30:26.894Z,65
2015-03-21T17:30:45.488Z,64
2015-03-21T17:31:04.130Z,64
2015-03-21T17:31:22.583Z,64
2015-03-21T17:31:41.021Z,64
2015-03-21T17:31:59.755Z,64
2015-03-21T17:32:18.180Z,64
2015-03-21T17:32:36.758Z,64
2015-03-21T17:32:55.336Z,64
2015-03-21T17:33:13.994Z,64
2015-03-21T17:33:32.416Z,64
2015-03-21T17:33:51.134Z,64
2015-03-21T17:34:10.012Z,64
2015-03-21T17:34:28.544Z,64
2015-03-21T17:34:47.356Z,64
2015-03-21T17:35:05.903Z,64
2015-03-21T17:35:24.328Z,64
2015-03-21T17:35:42.906Z,65
2015-03-21T17:36:01.312Z,65
2015-03-21T17:36:19.877Z,65
2015-03-21T17:36:38.517Z,65
2015-03-21T17:36:56.939Z,65
2015-03-21T17:37:15.580Z,65
2015-03-21T17:37:34.019Z,65
2015-03-21T17:37:52.738Z,65
2015-03-21T17:38:11.394Z,65
2015-03-21T17:38:30.257Z,65
2015-03-21T17:38:49.663Z,65
2015-03-21T17:39:08.163Z,65
2015-03-21T17:39:27.022Z,65
2015-03-21T17:39:45.400Z,65
2015-03-21T17:40:04.275Z,65
2015-03-21T17:40:22.635Z,65
2015-03-21T17:40:41.137Z,65
2015-03-21T17:40:59.605Z,65
2015-03-21T17:41:18.355Z,65
2015-03-21T17:41:36.762Z,65
2015-03-21T17:41:55.452Z,65
2015-03-21T17:42:13.890Z,65
2015-03-21T17:42:32.358Z,65
2015-03-21T17:42:50.751Z,65
2015-03-21T17:43:09.454Z,65
2015-03-21T17:43:27.954Z,65
2015-03-21T17:43:46.720Z,65
2015-03-21T17:44:05.409Z,65
2015-03-21T17:44:24.003Z,65
2015-03-21T17:44:42.347Z,65
2015-03-21T17:45:00.881Z,65
2015-03-21T17:45:19.475Z,65
2015-03-21T17:45:38.053Z,65
2015-03-21T17:45:56.821Z,65
2015-03-21T17:46:15.211Z,65
2015-03-21T17:46:33.805Z,65
2015-03-21T17:46:52.416Z,64
2015-03-21T17:47:11.369Z,64
2015-03-21T17:47:29.807Z,64
2015-03-21T17:47:48.401Z,64
2015-03-21T17:48:06.763Z,64
2015-03-21T17:48:25.216Z,64
2015-03-21T17:48:43.607Z,64
2015-03-21T17:49:02.375Z,64
2015-03-21T17:49:21.297Z,64
2015-03-21T17:49:40.016Z,64
2015-03-21T17:49:58.375Z,64
2015-03-21T17:50:17.034Z,64
2015-03-21T17:50:34.862Z,64
2015-03-21T17:50:53.627Z,64
2015-03-21T17:51:12.036Z,64
2015-03-21T17:51:30.442Z,64
2015-03-21T17:51:49.067Z,64
2015-03-21T17:52:07.973Z,64
2015-03-21T17:52:26.617Z,64
2015-03-21T17:52:45.101Z,64
2015-03-21T17:53:03.757Z,64
2015-03-21T17:53:22.370Z,64
2015-03-21T17:53:40.854Z,64
2015-03-21T17:53:59.479Z,64
2015-03-21T17:54:17.854Z,63
2015-03-21T17:54:36.434Z,63
2015-03-21T17:54:54.887Z,63
2015-03-21T17:55:13.309Z,63
2015-03-21T17:55:31.858Z,63
2015-03-21T17:55:50.280Z,63
2015-03-21T17:56:08.999Z,63
2015-03-21T17:56:27.405Z,63
2015-03-21T17:56:45.845Z,63
2015-03-21T17:57:04.266Z,63
2015-03-21T17:57:23.188Z,62
2015-03-21T17:57:41.677Z,62
2015-03-21T17:58:00.099Z,62
2015-03-21T17:58:18.849Z,62
2015-03-21T17:58:37.427Z,62
2015-03-21T17:58:55.865Z,62
2015-03-21T17:59:14.287Z,62
2015-03-21T17:59:32.709Z,62
2015-03-21T17:59:51.087Z,62
2015-03-21T18:00:09.524Z,62
2015-03-21T18:00:27.978Z,62
2015-03-21T18:00:46.431Z,62
2015-03-21T18:01:05.058Z,62
2015-03-21T18:01:23.464Z,62
2015-03-21T18:01:42.073Z,62
2015-03-21T18:02:00.451Z,62
2015-03-21T18:02:18.858Z,62
2015-03-21T18:02:37.295Z,62
2015-03-21T18:02:55.733Z,62
2015-03-21T18:03:14.126Z,62
2015-03-21T18:03:32.517Z,62
2015-03-21T18:03:50.939Z,62
2015-03-21T18:04:09.550Z,62
2015-03-21T18:04:27.988Z,62
2015-03-21T18:04:46.706Z,62
2015-03-21T18:05:05.159Z,62
2015-03-21T18:05:23.569Z,62
2015-03-21T18:05:42.037Z,62
2015-03-21T18:06:00.412Z,61
2015-03-21T18:06:19.071Z,61
2015-03-21T18:06:37.649Z,61
2015-03-21T18:06:56.055Z,61
2015-03-21T18:07:14.430Z,61
2015-03-21T18:07:32.871Z,61
2015-03-21T18:07:51.246Z,61
2015-03-21T18:08:09.871Z,61
2015-03-21T18:08:28.420Z,61
2015-03-21T18:08:46.999Z,61
2015-03-21T18:09:05.389Z,61
2015-03-21T18:09:23.780Z,62
2015-03-21T18:09:42.188Z,61
2015-03-21T18:10:00.610Z,61
2015-03-21T18:10:19.157Z,61
2015-03-21T18:10:38.003Z,61
2015-03-21T18:10:56.456Z,61
2015-03-21T18:11:14.971Z,61
2015-03-21T18:11:33.518Z,61
2015-03-21T18:11:51.942Z,61
2015-03-21T18:12:10.395Z,61
2015-03-21T18:12:29.161Z,61
2015-03-21T18:12:47.617Z,61
2015-03-21T18:13:06.164Z,61
2015-03-21T18:13:24.633Z,61
2015-03-21T18:13:43.304Z,61
2015-03-21T18:14:01.744Z,61
2015-03-21T18:14:20.166Z,61
2015-03-21T18:14:38.947Z,60
2015-03-21T18:14:57.513Z,60
2015-03-21T18:15:15.903Z,61
2015-03-21T18:15:34.419Z,61
2015-03-21T18:15:53.138Z,61
2015-03-21T18:16:11.594Z,61
2015-03-21T18:16:29.953Z,61
2015-03-21T18:16:48.375Z,61
2015-03-21T18:17:06.830Z,61
2015-03-21T18:17:25.830Z,61
2015-03-21T18:17:44.252Z,61
2015-03-21T18:18:02.783Z,61
2015-03-21T18:18:21.441Z,61
2015-03-21T18:18:40.160Z,61
2015-03-21T18:18:58.926Z,61
2015-03-21T18:19:17.648Z,61
2015-03-21T18:19:35.632Z,61
2015-03-21T18:19:54.069Z,60
2015-03-21T18:20:12.509Z,60
2015-03-21T18:20:30.931Z,60
2015-03-21T18:20:49.306Z,60
2015-03-21T18:21:07.978Z,60
2015-03-21T18:21:26.403Z,60
2015-03-21T18:21:44.981Z,60
2015-03-21T18:22:03.356Z,60
2015-03-21T18:22:22.014Z,60
2015-03-21T18:22:40.483Z,60
2015-03-21T18:22:59.123Z,60
2015-03-21T18:23:17.578Z,60
2015-03-21T18:23:36.032Z,60
2015-03-21T18:23:54.422Z,61
2015-03-21T18:24:12.797Z,61
2015-03-21T18:24:31.285Z,61
2015-03-21T18:24:49.722Z,61
2015-03-21T18:25:08.097Z,61
2015-03-21T18:25:26.568Z,61
2015-03-21T18:25:45.130Z,61
2015-03-21T18:26:03.693Z,61
2015-03-21T18:26:22.255Z,61
2015-03-21T18:26:40.835Z,61
2015-03-21T18:26:59.351Z,61
2015-03-21T18:27:17.742Z,61
2015-03-21T18:27:36.324Z,61
2015-03-21T18:27:54.730Z,61
2015-03-21T18:28:13.199Z,61
2015-03-21T18:28:31.589Z,61
2015-03-21T18:28:49.997Z,61
2015-03-21T18:29:08.590Z,61
2015-03-21T18:29:27.215Z,61
2015-03-21T18:29:45.672Z,61
2015-03-21T18:30:04.047Z,61
2015-03-21T18:30:22.468Z,61
2015-03-21T18:30:41.062Z,61
2015-03-21T18:30:59.736Z,60
2015-03-21T18:31:18.361Z,61
2015-03-21T18:31:36.861Z,60
2015-03-21T18:31:55.395Z,60
2015-03-21T18:32:13.989Z,61
2015-03-21T18:32:32.348Z,61
2015-03-21T18:32:50.942Z,61
2015-03-21T18:33:09.741Z,61
2015-03-21T18:33:28.194Z,61
2015-03-21T18:33:47.007Z,61
2015-03-21T18:34:05.432Z,61
2015-03-21T18:34:23.822Z,61
2015-03-21T18:34:42.260Z,61
2015-03-21T18:35:00.666Z,61
2015-03-21T18:35:19.310Z,61
2015-03-21T18:35:37.685Z,61
2015-03-21T18:35:56.122Z,61
2015-03-21T18:36:14.562Z,61
2015-03-21T18:36:33.046Z,61
2015-03-21T18:36:51.577Z,61
2015-03-21T18:37:09.952Z,62
2015-03-21T18:37:28.580Z,62
2015-03-21T18:37:47.190Z,62
2015-03-21T18:38:05.580Z,61
2015-03-21T18:38:23.989Z,61
2015-03-21T18:38:42.443Z,61
2015-03-21T18:39:00.880Z,61
2015-03-21T18:39:19.333Z,61
2015-03-21T18:39:37.850Z,61
2015-03-21T18:39:56.381Z,61
2015-03-21T18:40:15.006Z,61
2015-03-21T18:40:33.556Z,61
2015-03-21T18:40:51.947Z,61
2015-03-21T18:41:10.462Z,61
2015-03-21T18:41:28.900Z,61
2015-03-21T18:41:47.527Z,61
2015-03-21T18:42:06.777Z,61
2015-03-21T18:42:25.152Z,61
2015-03-21T18:42:43.530Z,60
2015-03-21T18:43:01.920Z,60
2015-03-21T18:43:20.327Z,60
2015-03-21T18:43:38.702Z,60
2015-03-21T18:43:57.172Z,61
2015-03-21T18:44:15.672Z,61
2015-03-21T18:44:34.094Z,61
2015-03-21T18:44:52.535Z,61
2015-03-21T18:45:10.925Z,61
2015-03-21T18:45:29.347Z,61
2015-03-21T18:45:47.691Z,61
2015-03-21T18:46:06.099Z,61
2015-03-21T18:46:24.615Z,61
2015-03-21T18:46:43.005Z,61
2015-03-21T18:47:01.524Z,61
2015-03-21T18:47:19.915Z,61
2015-03-21T18:47:38.321Z,61
2015-03-21T18:47:56.915Z,61
2015-03-21T18:48:15.339Z,61
2015-03-21T18:48:33.714Z,61
2015-03-21T18:48:52.151Z,61
2015-03-21T18:49:10.654Z,61
2015-03-21T18:49:29.045Z,61
2015-03-21T18:49:47.498Z,61
2015-03-21T18:50:05.873Z,62
2015-03-21T18:50:24.234Z,62
2015-03-21T18:50:42.750Z,62
2015-03-21T18:51:01.234Z,62
2015-03-21T18:51:19.612Z,62
2015-03-21T18:51:38.206Z,62
2015-03-21T18:51:56.753Z,62
2015-03-21T18:52:15.487Z,62
2015-03-21T18:52:33.895Z,62
2015-03-21T18:52:52.317Z,62
2015-03-21T18:53:10.833Z,62
2015-03-21T18:53:29.320Z,62
2015-03-21T18:53:47.977Z,62
2015-03-21T18:54:06.414Z,62
2015-03-21T18:54:25.164Z,62
2015-03-21T18:54:43.744Z,62
2015-03-21T18:55:02.119Z,62
2015-03-21T18:55:20.822Z,62
2015-03-21T18:55:39.185Z,62
2015-03-21T18:55:57.810Z,62
2015-03-21T18:56:16.388Z,62
2015-03-21T18:56:34.778Z,62
2015-03-21T18:56:53.202Z,62
2015-03-21T18:57:11.624Z,62
2015-03-21T18:57:29.999Z,62
2015-03-21T18:57:48.533Z,62
2015-03-21T18:58:07.143Z,62
2015-03-21T18:58:25.908Z,62
2015-03-21T18:58:44.283Z,62
2015-03-21T18:59:02.895Z,62
2015-03-21T18:59:21.442Z,62
2015-03-21T18:59:39.989Z,62
2015-03-21T18:59:58.367Z,62
2015-03-21T19:00:17.163Z,62
2015-03-21T19:00:35.538Z,62
2015-03-21T19:00:54.023Z,62
2015-03-21T19:01:12.495Z,62
2015-03-21T19:01:31.041Z,62
2015-03-21T19:01:49.448Z,63
2015-03-21T19:02:07.840Z,63
2015-03-21T19:02:26.262Z,63
2015-03-21T19:02:44.668Z,63
2015-03-21T19:03:03.043Z,63
2015-03-21T19:03:21.483Z,63
2015-03-21T19:03:40.077Z,63
2015-03-21T19:03:58.702Z,63
2015-03-21T19:04:17.235Z,63
2015-03-21T19:04:35.641Z,63
2015-03-21T19:04:54.032Z,64
2015-03-21T19:05:12.597Z,64
2015-03-21T19:05:30.988Z,64
2015-03-21T19:05:49.472Z,64
2015-03-21T19:06:07.847Z,64
2015-03-21T19:06:26.225Z,64
2015-03-21T19:06:44.616Z,64
2015-03-21T19:07:03.116Z,64
2015-03-21T19:07:21.476Z,64
2015-03-21T19:07:39.976Z,64
2015-03-21T19:07:58.351Z,64
2015-03-21T19:08:16.979Z,64
2015-03-21T19:08:35.354Z,64
2015-03-21T19:08:53.729Z,64
2015-03-21T19:09:12.214Z,64
2015-03-21T19:09:30.700Z,64
2015-03-21T19:09:49.091Z,64
2015-03-21T19:10:07.466Z,64
2015-03-21T19:10:25.843Z,65
2015-03-21T19:10:44.249Z,65
2015-03-21T19:11:02.671Z,65
2015-03-21T19:11:21.095Z,65
2015-03-21T19:11:39.454Z,65
2015-03-21T19:11:58.063Z,65
2015-03-21T19:12:16.520Z,65
2015-03-21T19:12:34.895Z,65
2015-03-21T19:12:53.473Z,65
2015-03-21T19:13:11.848Z,65
2015-03-21T19:13:30.351Z,65
2015-03-21T19:13:48.882Z,65
2015-03-21T19:14:07.335Z,65
2015-03-21T19:14:25.758Z,65
2015-03-21T19:14:44.336Z,65
2015-03-21T19:15:02.914Z,65
2015-03-21T19:15:21.464Z,65
2015-03-21T19:15:40.230Z,65
2015-03-21T19:15:58.870Z,65
2015-03-21T19:16:17.308Z,65
2015-03-21T19:16:35.982Z,65
2015-03-21T19:16:54.482Z,66
2015-03-21T19:17:16.044Z,66
2015-03-21T19:17:34.641Z,66
2015-03-21T19:17:53.110Z,66
2015-03-21T19:18:11.719Z,66
2015-03-21T19:18:30.410Z,66
2015-03-21T19:18:48.800Z,66
2015-03-21T19:19:07.566Z,66
2015-03-21T19:19:26.427Z,66
2015-03-21T19:19:45.177Z,66
2015-03-21T19:20:04.146Z,66
2015-03-21T19:20:22.771Z,66
2015-03-21T19:20:41.648Z,66
2015-03-21T19:21:00.429Z,66
2015-03-21T19:21:19.570Z,66
2015-03-21T19:21:38.448Z,66
2015-03-21T19:21:57.354Z,66
2015-03-21T19:22:15.854Z,66
2015-03-21T19:22:34.246Z,66
2015-03-21T19:22:52.699Z,66
2015-03-21T19:23:11.230Z,66
2015-03-21T19:23:30.092Z,66
2015-03-21T19:23:48.671Z,66
2015-03-21T19:24:07.342Z,66
2015-03-21T19:24:25.749Z,66
2015-03-21T19:24:44.251Z,66
2015-03-21T19:25:02.798Z,66
2015-03-21T19:25:21.188Z,66
2015-03-21T19:25:39.753Z,66
2015-03-21T19:25:58.159Z,66
2015-03-21T19:26:16.878Z,66
2015-03-21T19:26:35.568Z,67
2015-03-21T19:26:53.990Z,67
2015-03-21T19:27:12.381Z,67
2015-03-21T19:27:30.820Z,67
2015-03-21T19:27:49.711Z,67
2015-03-21T19:28:08.258Z,67
2015-03-21T19:28:26.930Z,67
2015-03-21T19:28:45.558Z,67
2015-03-21T19:29:04.198Z,67
2015-03-21T19:29:22.870Z,67
2015-03-21T19:29:41.450Z,67
2015-03-21T19:30:00.403Z,67
2015-03-21T19:30:18.919Z,67
2015-03-21T19:30:37.390Z,67
2015-03-21T19:30:56.030Z,67
2015-03-21T19:31:14.749Z,67
2015-03-21T19:31:33.374Z,67
2015-03-21T19:31:52.032Z,67
2015-03-21T19:32:10.704Z,67
2015-03-21T19:32:29.298Z,67
2015-03-21T19:32:47.863Z,67
2015-03-21T19:33:06.254Z,67
2015-03-21T19:33:24.707Z,67
2015-03-21T19:33:43.163Z,67
2015-03-21T19:34:01.679Z,67
2015-03-21T19:34:20.163Z,67
2015-03-21T19:34:38.727Z,67
2015-03-21T19:34:57.555Z,67
2015-03-21T19:35:16.430Z,67
2015-03-21T19:35:34.992Z,67
2015-03-21T19:35:53.558Z,67
2015-03-21T19:36:12.230Z,67
2015-03-21T19:36:31.105Z,68
2015-03-21T19:36:49.591Z,68
2015-03-21T19:37:08.107Z,68
2015-03-21T19:37:26.732Z,68
2015-03-21T19:37:45.407Z,68
2015-03-21T19:38:03.985Z,68
2015-03-21T19:38:22.579Z,68
2015-03-21T19:38:41.206Z,68
2015-03-21T19:38:59.581Z,68
2015-03-21T19:39:18.127Z,68
2015-03-21T19:39:36.581Z,68
2015-03-21T19:39:55.098Z,68
2015-03-21T19:40:13.583Z,68
2015-03-21T19:40:32.583Z,68
2015-03-21T19:40:51.179Z,68
2015-03-21T19:41:09.914Z,68
2015-03-21T19:41:28.461Z,68
2015-03-21T19:41:47.181Z,68
2015-03-21T19:42:05.650Z,68
2015-03-21T19:42:24.353Z,68
2015-03-21T19:42:42.775Z,68
2015-03-21T19:43:01.387Z,68
2015-03-21T19:43:20.075Z,68
2015-03-21T19:43:38.919Z,68
2015-03-21T19:43:57.561Z,68
2015-03-21T19:44:16.077Z,68
2015-03-21T19:44:34.843Z,69
2015-03-21T19:44:53.360Z,69
2015-03-21T19:45:12.376Z,69
2015-03-21T19:45:31.141Z,69
2015-03-21T19:45:49.582Z,69
2015-03-21T19:46:08.207Z,69
2015-03-21T19:46:26.910Z,69
2015-03-21T19:46:45.566Z,69
2015-03-21T19:47:04.506Z,69
2015-03-21T19:47:23.084Z,69
2015-03-21T19:47:41.553Z,69
2015-03-21T19:48:00.337Z,69
2015-03-21T19:48:19.024Z,69
2015-03-21T19:48:37.634Z,69
2015-03-21T19:48:56.042Z,69
2015-03-21T19:49:14.792Z,69
2015-03-21T19:49:33.401Z,69
2015-03-21T19:49:51.808Z,69
2015-03-21T19:50:10.575Z,69
2015-03-21T19:50:28.966Z,69
2015-03-21T19:50:47.528Z,69
2015-03-21T19:51:06.187Z,69
2015-03-21T19:51:24.640Z,69
2015-03-21T19:51:43.562Z,69
2015-03-21T19:52:02.268Z,69
2015-03-21T19:52:21.158Z,69
2015-03-21T19:52:39.877Z,69
2015-03-21T19:52:58.473Z,69
2015-03-21T19:53:17.285Z,69
2015-03-21T19:53:35.707Z,69
2015-03-21T19:53:54.129Z,69
2015-03-21T19:54:12.522Z,69
2015-03-21T19:54:30.928Z,69
2015-03-21T19:54:49.366Z,69
2015-03-21T19:55:07.821Z,69
2015-03-21T19:55:26.258Z,69
2015-03-21T19:55:44.821Z,69
2015-03-21T19:56:03.214Z,69
2015-03-21T19:56:21.636Z,69
2015-03-21T19:56:40.011Z,69
2015-03-21T19:56:58.746Z,69
2015-03-21T19:57:17.294Z,70
2015-03-21T19:57:36.091Z,70
2015-03-21T19:57:54.873Z,70
2015-03-21T19:58:13.501Z,70
2015-03-21T19:58:32.188Z,70
2015-03-21T19:58:50.907Z,70
2015-03-21T19:59:09.659Z,70
2015-03-21T19:59:28.253Z,70
2015-03-21T19:59:46.721Z,70
2015-03-21T20:00:05.176Z,70
2015-03-21T20:00:23.661Z,70
2015-03-21T20:00:42.395Z,70
2015-03-21T20:01:01.161Z,70
2015-03-21T20:01:19.804Z,70
2015-03-21T20:01:38.226Z,70
2015-03-21T20:01:56.804Z,70
2015-03-21T20:02:15.603Z,70
2015-03-21T20:02:34.181Z,70
2015-03-21T20:02:52.556Z,70
2015-03-21T20:03:11.137Z,70
2015-03-21T20:03:29.840Z,70
2015-03-21T20:03:48.230Z,70
2015-03-21T20:04:06.623Z,70
2015-03-21T20:04:25.029Z,70
2015-03-21T20:04:43.701Z,70
2015-03-21T20:05:02.201Z,70
2015-03-21T20:05:20.813Z,70
2015-03-21T20:05:39.392Z,70
2015-03-21T20:05:58.204Z,70
2015-03-21T20:06:17.065Z,70
2015-03-21T20:06:41.862Z,70
2015-03-21T20:07:00.425Z,70
2015-03-21T20:07:18.864Z,70
2015-03-21T20:07:37.302Z,70
2015-03-21T20:07:55.974Z,70
2015-03-21T20:08:14.336Z,70
2015-03-21T20:08:32.789Z,70
2015-03-21T20:08:51.414Z,70
2015-03-21T20:09:09.930Z,70
2015-03-21T20:09:28.494Z,70
2015-03-21T20:09:46.979Z,70